METAR Data
IDs: Format: Raw Decoded Include TAF

Data at: 2105 UTC 24 Mar 2019

KCRS 242053Z AUTO 20013KT 10SM OVC037 23/17 A3003 RMK AO2 SLP164 T02330167 58012
KCRS 241953Z AUTO 22011G19KT 10SM FEW023 OVC031 23/17 A3004 RMK AO2 SLP170 T02280167
KCRS 241853Z AUTO 19011KT 10SM SCT023 OVC030 22/17 A3006 RMK AO2 SLP177 T02220172
KCRS 241753Z AUTO 21012KT 10SM OVC024 22/17 A3008 RMK AO2 SLP183 T02170167 10228 20172 58009
KCRS 241653Z AUTO 21014G20KT 10SM OVC022 21/17 A3010 RMK AO2 SLP188 T02060167
KCRS 241553Z AUTO 21009KT 9SM BKN016 BKN022 OVC031 20/17 A3011 RMK AO2 SLP192 T02000167
KCRS 241453Z AUTO 19008KT 9SM BKN013 OVC018 18/16 A3011 RMK AO2 SLP192 T01830161 51017
KCRS 241442Z AUTO 18006KT 9SM BKN013 BKN020 OVC026 18/16 A3011 RMK AO2 T01830161
KCRS 241422Z AUTO 17006KT 9SM SCT010 BKN020 OVC034 18/16 A3010 RMK AO2 T01830161
KCRS 241353Z AUTO 18006KT 9SM OVC011 18/16 A3010 RMK AO2 SLP189 T01780156
KCRS 241253Z AUTO 18007KT 9SM OVC012 17/16 A3008 RMK AO2 SLP182 T01720156
KCRS 241222Z AUTO 19006KT 10SM BKN011 OVC031 17/16 A3007 RMK AO2 T01720156
KCRS 241153Z AUTO 17008KT 10SM OVC031 17/15 A3006 RMK AO2 SLP175 T01720150 10178 20167 55001
KCRS 241116Z AUTO 17007KT 10SM SCT016 OVC032 17/15 A3006 RMK AO2 T01670150
KCRS 241101Z AUTO 16010KT 10SM BKN014 BKN019 OVC036 17/15 A3005 RMK AO2 T01670150
KCRS 241053Z AUTO 17009KT 10SM SCT018 BKN036 17/15 A3005 RMK AO2 SLP174 T01670150
KCRS 241010Z AUTO 17009KT 10SM SCT021 OVC034 17/15 A3005 RMK AO2 T01670150
KCRS 240953Z AUTO 17009KT 10SM OVC021 17/15 A3005 RMK AO2 SLP171 T01720150
KCRS 240902Z AUTO 18011KT 10SM BKN026 OVC033 18/15 A3006 RMK AO2 T01780150
KCRS 240853Z AUTO 19011KT 10SM SCT028 OVC032 18/15 A3006 RMK AO2 SLP175 T01780150 58001
KCRS 240753Z AUTO 18008KT 10SM OVC036 17/14 A3007 RMK AO2 SLP180 T01720144
KCRS 240653Z AUTO 18008KT 10SM CLR 17/14 A3007 RMK AO2 SLP181 T01670144
KCRS 240553Z AUTO 18012KT 10SM CLR 17/14 A3006 RMK AO2 SLP177 T01720139 10217 20172 402390139 50005
KCRS 240453Z AUTO 17013KT 10SM CLR 18/14 A3007 RMK AO2 SLP178 T01780139
KCRS 240353Z AUTO 16014KT 10SM CLR 19/14 A3006 RMK AO2 SLP178 T01890139
KCRS 240253Z AUTO 16014KT 10SM FEW045 19/13 A3005 RMK AO2 SLP172 T01940128 51006
KCRS 240153Z AUTO 17012KT 10SM FEW045 BKN055 OVC110 21/13 A3004 RMK AO2 SLP171 T02060133
KCRS 240053Z AUTO 17009KT 10SM OVC048 21/14 A3004 RMK AO2 SLP169 T02060139
KCRS 232353Z AUTO 17010G18KT 10SM OVC048 22/14 A3003 RMK AO2 SLP166 60000 T02170139 10239 20194 55003
KCRS 232253Z AUTO 17015G22KT 10SM OVC050 22/14 A3002 RMK AO2 PK WND 17026/2202 SLP162 T02220139
KCRS 232153Z AUTO 17018KT 10SM BKN040 BKN047 BKN060 23/14 A3002 RMK AO2 SLP163 T02330144
KCRS 232053Z AUTO 18018KT 10SM FEW033 SCT043 BKN060 23/14 A3004 RMK AO2 SLP169 60000 T02280144 56026
KCRS 231953Z AUTO 17013G22KT 10SM SCT065 SCT090 BKN110 22/15 A3006 RMK AO2 RAB21E30 SLP177 P0000 T02220150
KCRS 231853Z AUTO 17012KT 10SM OVC070 19/14 A3009 RMK AO2 SLP188 T01940139
KCRS 231753Z AUTO 17013KT 10SM SCT027 BKN037 OVC070 19/14 A3012 RMK AO2 SLP196 60000 T01940139 10194 20139 58003
KCRS 231653Z AUTO 17013KT 10SM BKN070 OVC085 18/14 A3013 RMK AO2 SLP200 T01830139
KCRS 231553Z AUTO 17015KT 10SM BKN075 OVC090 18/14 A3013 RMK AO2 SLP200 T01780139
KCRS 231453Z AUTO 17010KT 10SM OVC090 16/13 A3013 RMK AO2 LTG DSNT E RAE08 SLP200 P0000 60000 T01560133 53014
KCRS 231442Z AUTO 18009KT 10SM BKN090 BKN110 16/13 A3013 RMK AO2 LTG DSNT E RAE08 P0000 T01560133
KCRS 231414Z AUTO 19009KT 10SM VCTS FEW050 SCT070 SCT085 16/13 A3013 RMK AO2 LTG DSNT S RAE08 P0000 T01560128
KCRS 231353Z AUTO 19011KT 7SM -RA BKN090 15/13 A3011 RMK AO2 LTG DSNT S RAB00 SLP195 P0000 T01500128
KCRS 231253Z AUTO 16011KT 10SM OVC090 15/12 A3009 RMK AO2 SLP187 T01500117
KCRS 231153Z AUTO 14003KT 10SM FEW075 14/11 A3009 RMK AO2 RAB01E10 SLP186 P0000 60000 T01390106 10172 20139 53001
KCRS 231053Z AUTO 00000KT 10SM SCT110 15/11 A3007 RMK AO2 RAE02B29E39 SLP181 P0000 T01500106
KCRS 230953Z AUTO 20006KT 10SM -RA FEW033 BKN110 16/10 A3006 RMK AO2 RAB51 SLP177 P0000 T01610100